createdAt,value
2019-03-10T00:00:59.264Z,82.60
2019-03-10T00:02:04.243Z,83.60
2019-03-10T00:03:08.567Z,83.70
2019-03-10T00:04:12.780Z,83.10
2019-03-10T00:05:17.009Z,84.10
2019-03-10T00:06:21.331Z,84.60
2019-03-10T00:07:25.715Z,84.40
2019-03-10T00:08:29.946Z,84.10
2019-03-10T00:09:34.323Z,84.60
2019-03-10T00:10:38.577Z,83.90
2019-03-10T00:11:42.773Z,84.30
2019-03-10T00:12:47.033Z,83.80
2019-03-10T00:13:51.283Z,84.30
2019-03-10T00:14:55.627Z,83.70
2019-03-10T00:16:00.212Z,84.20
2019-03-10T00:17:04.511Z,84.10
2019-03-10T00:18:08.833Z,84.10
2019-03-10T00:19:13.173Z,84.10
2019-03-10T00:20:17.512Z,84.20
2019-03-10T00:21:21.763Z,84.30
2019-03-10T00:22:26.083Z,84.70
2019-03-10T00:23:30.325Z,84.50
2019-03-10T00:24:34.627Z,84.80
2019-03-10T00:25:38.851Z,85.00
2019-03-10T00:26:43.131Z,84.90
2019-03-10T00:27:47.490Z,84.50
2019-03-10T00:28:51.767Z,85.20
2019-03-10T00:29:56.152Z,84.10
2019-03-10T00:31:00.324Z,84.30
2019-03-10T00:32:04.541Z,84.60
2019-03-10T00:33:08.827Z,84.20
2019-03-10T00:34:13.049Z,83.90
2019-03-10T00:35:17.487Z,83.90
2019-03-10T00:36:21.903Z,84.30
2019-03-10T00:37:26.481Z,84.40
2019-03-10T00:38:43.651Z,84.50
2019-03-10T00:40:37.361Z,85.00
2019-03-10T00:42:24.564Z,84.60
2019-03-10T00:44:07.120Z,85.20
2019-03-10T00:45:42.395Z,85.60
2019-03-10T00:47:36.583Z,85.50
2019-03-10T00:49:27.863Z,85.80
2019-03-10T00:51:25.332Z,84.90
2019-03-10T00:52:34.290Z,85.00
2019-03-10T00:53:38.582Z,84.70
2019-03-10T00:54:42.838Z,84.80
2019-03-10T00:55:47.441Z,85.20
2019-03-10T00:56:51.800Z,86.10
2019-03-10T00:57:56.088Z,86.40
2019-03-10T00:59:00.373Z,86.20
2019-03-10T01:00:05.760Z,85.50
2019-03-10T01:01:10.047Z,85.70
2019-03-10T01:02:14.530Z,86.10
2019-03-10T01:03:18.871Z,86.30
2019-03-10T01:04:23.048Z,85.60
2019-03-10T01:05:27.369Z,85.70
2019-03-10T01:06:31.626Z,85.10
2019-03-10T01:07:36.131Z,85.00
2019-03-10T01:08:40.535Z,84.90
2019-03-10T01:09:44.692Z,85.30
2019-03-10T01:10:49.003Z,84.80
2019-03-10T01:11:53.559Z,85.60
2019-03-10T01:12:58.067Z,85.40
2019-03-10T01:14:02.337Z,86.60
2019-03-10T01:15:08.609Z,85.30
2019-03-10T01:16:13.209Z,85.70
2019-03-10T01:17:18.371Z,86.20
2019-03-10T01:18:24.297Z,86.00
2019-03-10T01:19:29.167Z,86.10
2019-03-10T01:20:33.447Z,86.50
2019-03-10T01:21:39.603Z,86.60
2019-03-10T01:22:43.821Z,87.00
2019-03-10T01:23:48.115Z,86.60
2019-03-10T01:24:52.411Z,86.70
2019-03-10T01:25:56.700Z,87.10
2019-03-10T01:27:00.917Z,87.90
2019-03-10T01:28:05.180Z,87.70
2019-03-10T01:29:09.505Z,87.70
2019-03-10T01:30:16.205Z,88.30
2019-03-10T01:31:29.309Z,89.30
2019-03-10T01:33:16.032Z,90.10
2019-03-10T01:34:43.545Z,89.50
2019-03-10T01:35:47.839Z,90.10
2019-03-10T01:36:52.079Z,90.20
2019-03-10T01:37:56.305Z,90.20
2019-03-10T01:39:00.599Z,90.80
2019-03-10T01:40:05.833Z,90.40
2019-03-10T01:41:10.191Z,90.30
2019-03-10T01:42:14.484Z,90.80
2019-03-10T01:43:18.780Z,91.00
2019-03-10T01:44:23.307Z,91.10
2019-03-10T01:45:27.480Z,90.80
2019-03-10T01:46:31.748Z,91.30
2019-03-10T01:47:36.127Z,91.30
2019-03-10T01:48:40.393Z,91.50
2019-03-10T01:49:44.761Z,91.50
2019-03-10T01:50:49.099Z,91.70
2019-03-10T01:51:53.399Z,91.50
2019-03-10T01:52:57.569Z,91.90
2019-03-10T01:54:01.931Z,91.60
2019-03-10T01:55:06.626Z,91.60
2019-03-10T01:56:10.880Z,91.50
2019-03-10T01:57:15.097Z,91.50
2019-03-10T01:58:19.233Z,91.70
2019-03-10T01:59:23.541Z,91.60
2019-03-10T02:00:28.201Z,92.30
2019-03-10T02:01:32.584Z,92.00
2019-03-10T02:02:36.924Z,91.70
2019-03-10T02:03:41.104Z,92.20
2019-03-10T02:04:45.715Z,92.40
2019-03-10T02:05:49.957Z,92.80
2019-03-10T02:06:54.248Z,92.70
2019-03-10T02:07:58.527Z,92.80
2019-03-10T02:09:03.004Z,93.20
2019-03-10T02:10:08.167Z,93.20
2019-03-10T02:11:12.431Z,93.10
2019-03-10T02:12:16.638Z,92.70
2019-03-10T02:13:20.980Z,92.90
2019-03-10T02:14:25.158Z,93.10
2019-03-10T02:15:29.401Z,93.60
2019-03-10T02:16:33.631Z,93.60
2019-03-10T02:17:37.910Z,93.30
2019-03-10T02:18:42.161Z,93.70
2019-03-10T02:19:46.347Z,93.50
2019-03-10T02:20:50.475Z,94.20
2019-03-10T02:21:54.738Z,93.50
2019-03-10T02:22:59.117Z,93.80
2019-03-10T02:24:03.429Z,93.80
2019-03-10T02:25:07.717Z,94.00
2019-03-10T02:26:12.014Z,94.00
2019-03-10T02:27:16.224Z,94.20
2019-03-10T02:28:20.405Z,94.20
2019-03-10T02:29:24.677Z,93.90
2019-03-10T02:30:28.937Z,94.30
2019-03-10T02:31:33.214Z,94.40
2019-03-10T02:32:37.426Z,94.20
2019-03-10T02:33:41.972Z,94.50
2019-03-10T02:34:46.146Z,94.60
2019-03-10T02:35:50.520Z,94.40
2019-03-10T02:36:54.863Z,94.50
2019-03-10T02:37:59.205Z,94.90
2019-03-10T02:39:04.750Z,95.10
2019-03-10T02:40:09.767Z,95.50
2019-03-10T02:41:14.170Z,95.50
2019-03-10T02:42:18.397Z,95.90
2019-03-10T02:43:22.767Z,96.00
2019-03-10T02:44:27.118Z,96.30
2019-03-10T02:45:31.436Z,96.00
2019-03-10T02:46:35.646Z,95.90
2019-03-10T02:47:39.937Z,95.80
2019-03-10T02:48:44.626Z,96.10
2019-03-10T02:49:48.764Z,96.10
2019-03-10T02:50:53.068Z,95.90
2019-03-10T02:51:57.277Z,96.10
2019-03-10T02:53:01.528Z,95.80
2019-03-10T02:54:05.852Z,96.50
2019-03-10T02:55:10.141Z,96.20
2019-03-10T02:56:14.757Z,96.10
2019-03-10T02:57:19.390Z,95.90
2019-03-10T02:58:23.747Z,96.10
2019-03-10T02:59:28.118Z,96.20
2019-03-10T03:00:32.286Z,96.60
2019-03-10T03:01:36.460Z,96.40
2019-03-10T03:02:40.744Z,96.10
2019-03-10T03:03:45.004Z,96.20
2019-03-10T03:04:49.231Z,96.70
2019-03-10T03:05:53.578Z,96.40
2019-03-10T03:06:57.865Z,96.30
2019-03-10T03:08:02.076Z,96.20
2019-03-10T03:09:06.831Z,96.40
2019-03-10T03:10:12.453Z,96.60
2019-03-10T03:11:16.687Z,96.50
2019-03-10T03:12:20.968Z,96.50
2019-03-10T03:13:25.267Z,96.20
2019-03-10T03:14:29.545Z,96.30
2019-03-10T03:15:34.159Z,96.40
2019-03-10T03:16:38.353Z,96.30
2019-03-10T03:17:42.633Z,96.50
2019-03-10T03:18:46.837Z,96.50
2019-03-10T03:19:51.226Z,96.50
2019-03-10T03:20:55.570Z,96.50
2019-03-10T03:22:00.202Z,96.50
2019-03-10T03:23:04.467Z,96.40
2019-03-10T03:24:08.728Z,96.80
2019-03-10T03:25:13.366Z,97.10
2019-03-10T03:26:17.585Z,96.70
2019-03-10T03:27:21.905Z,96.70
2019-03-10T03:28:26.119Z,96.70
2019-03-10T03:29:30.496Z,96.80
2019-03-10T03:30:34.946Z,97.00
2019-03-10T03:31:39.149Z,97.10
2019-03-10T03:32:43.308Z,97.10
2019-03-10T03:33:47.658Z,97.10
2019-03-10T03:34:51.924Z,97.10
2019-03-10T03:36:03.244Z,97.40
2019-03-10T03:37:09.105Z,96.90
2019-03-10T03:38:13.293Z,96.60
2019-03-10T03:39:27.475Z,96.60
2019-03-10T03:40:32.109Z,97.00
2019-03-10T03:41:36.459Z,97.00
2019-03-10T03:42:40.644Z,97.60
2019-03-10T03:43:44.912Z,97.20
2019-03-10T03:44:49.093Z,97.00
2019-03-10T03:45:53.409Z,96.80
2019-03-10T03:46:57.676Z,96.90
2019-03-10T03:48:01.864Z,96.50
2019-03-10T03:49:06.217Z,96.60
2019-03-10T03:50:10.528Z,96.60
2019-03-10T03:51:14.879Z,97.10
2019-03-10T03:52:19.248Z,96.80
2019-03-10T03:53:23.572Z,96.40
2019-03-10T03:54:27.767Z,96.70
2019-03-10T03:55:32.020Z,97.00
2019-03-10T03:56:36.359Z,96.90
2019-03-10T03:57:40.567Z,96.70
2019-03-10T03:58:44.714Z,96.40
2019-03-10T03:59:48.836Z,96.20
2019-03-10T04:00:58.939Z,96.60
2019-03-10T04:02:16.269Z,97.00
2019-03-10T04:03:20.930Z,96.60
2019-03-10T04:04:25.109Z,96.70
2019-03-10T04:05:29.442Z,96.80
2019-03-10T04:06:33.676Z,97.20
2019-03-10T04:07:37.972Z,97.10
2019-03-10T04:08:42.271Z,97.00
2019-03-10T04:09:46.596Z,97.10
2019-03-10T04:10:50.859Z,97.10
2019-03-10T04:11:55.098Z,97.10
2019-03-10T04:12:59.362Z,97.10
2019-03-10T04:14:03.678Z,97.50
2019-03-10T04:15:08.069Z,97.10
2019-03-10T04:16:12.322Z,97.10
2019-03-10T04:17:16.524Z,97.30
2019-03-10T04:18:20.811Z,97.60
2019-03-10T04:19:25.146Z,97.20
2019-03-10T04:20:29.440Z,97.10
2019-03-10T04:21:33.716Z,97.30
2019-03-10T04:22:37.903Z,97.30
2019-03-10T04:23:42.205Z,97.50
2019-03-10T04:24:46.440Z,97.80
2019-03-10T04:25:50.595Z,98.10
2019-03-10T04:26:54.855Z,98.40
2019-03-10T04:27:59.016Z,98.50
2019-03-10T04:29:03.288Z,98.20
2019-03-10T04:30:08.522Z,98.20
2019-03-10T04:31:12.688Z,98.30
2019-03-10T04:32:16.925Z,98.20
2019-03-10T04:33:21.231Z,98.30
2019-03-10T04:34:25.483Z,98.40
2019-03-10T04:35:29.784Z,98.10
2019-03-10T04:36:34.045Z,97.50
2019-03-10T04:37:38.323Z,97.80
2019-03-10T04:38:42.642Z,96.90
2019-03-10T04:39:46.865Z,97.50
2019-03-10T04:40:51.086Z,97.10
2019-03-10T04:41:55.359Z,96.40
2019-03-10T04:42:59.700Z,96.30
2019-03-10T04:44:04.007Z,96.10
2019-03-10T04:45:08.621Z,96.00
2019-03-10T04:46:12.866Z,96.20
2019-03-10T04:47:17.051Z,96.20
2019-03-10T04:48:21.361Z,96.00
2019-03-10T04:49:25.489Z,96.40
2019-03-10T04:50:29.781Z,95.90
2019-03-10T04:51:33.994Z,96.10
2019-03-10T04:52:38.309Z,96.10
2019-03-10T04:53:42.488Z,95.40
2019-03-10T04:55:05.725Z,95.60
2019-03-10T04:56:30.238Z,96.00
2019-03-10T04:57:34.515Z,96.00
2019-03-10T04:58:42.559Z,96.20
2019-03-10T04:59:46.792Z,96.30
2019-03-10T05:00:53.383Z,96.80
2019-03-10T05:01:57.633Z,96.20
2019-03-10T05:03:01.958Z,96.30
2019-03-10T05:04:06.284Z,96.10
2019-03-10T05:05:10.665Z,96.10
2019-03-10T05:06:14.921Z,96.20
2019-03-10T05:07:19.220Z,96.70
2019-03-10T05:08:23.560Z,96.40
2019-03-10T05:09:27.751Z,96.70
2019-03-10T05:10:32.031Z,96.80
2019-03-10T05:11:36.244Z,96.80
2019-03-10T05:12:40.440Z,96.70
2019-03-10T05:13:44.727Z,96.90
2019-03-10T05:14:48.963Z,97.40
2019-03-10T05:15:53.232Z,97.20
2019-03-10T05:16:57.453Z,97.50
2019-03-10T05:18:01.741Z,97.20
2019-03-10T05:19:05.933Z,97.60
2019-03-10T05:20:10.358Z,97.70
2019-03-10T05:21:14.671Z,97.30
2019-03-10T05:22:19.013Z,97.70
2019-03-10T05:23:31.467Z,98.00
2019-03-10T05:24:35.830Z,98.00
2019-03-10T05:25:40.163Z,99.00
2019-03-10T05:26:44.363Z,99.90
2019-03-10T05:27:48.492Z,99.90
2019-03-10T05:28:52.806Z,99.90
2019-03-10T05:29:57.004Z,99.90
2019-03-10T05:31:01.475Z,99.90
2019-03-10T05:32:05.769Z,99.90
2019-03-10T05:33:09.952Z,99.90
2019-03-10T05:34:14.231Z,99.90
2019-03-10T05:35:18.576Z,99.90
2019-03-10T05:36:22.880Z,99.90
2019-03-10T05:37:27.249Z,99.90
2019-03-10T05:38:31.532Z,99.90
2019-03-10T05:39:36.161Z,99.90
2019-03-10T05:40:40.488Z,99.90
2019-03-10T05:41:45.028Z,99.90
2019-03-10T05:42:49.323Z,99.90
2019-03-10T05:43:53.634Z,99.90
2019-03-10T05:44:57.912Z,99.90
2019-03-10T05:46:02.143Z,99.90
2019-03-10T05:47:06.433Z,99.90
2019-03-10T05:48:10.779Z,99.90
2019-03-10T05:49:15.062Z,99.90
2019-03-10T05:50:19.272Z,99.90
2019-03-10T05:51:23.604Z,99.90
2019-03-10T05:52:27.868Z,99.90
2019-03-10T05:53:32.164Z,99.90
2019-03-10T05:54:36.399Z,99.90
2019-03-10T05:55:40.593Z,99.90
2019-03-10T05:56:44.883Z,99.90
2019-03-10T05:57:49.066Z,99.90
2019-03-10T05:58:53.329Z,99.90
2019-03-10T05:59:57.691Z,99.90
2019-03-10T06:01:01.878Z,99.90
2019-03-10T06:02:06.297Z,99.90
2019-03-10T06:03:11.136Z,99.90
2019-03-10T06:04:15.312Z,99.90
2019-03-10T06:05:19.652Z,99.90
2019-03-10T06:06:23.878Z,99.90
2019-03-10T06:07:28.199Z,99.90
2019-03-10T06:08:32.608Z,99.90
2019-03-10T06:09:37.188Z,99.90
2019-03-10T06:10:41.549Z,99.90
2019-03-10T06:11:45.801Z,99.90
2019-03-10T06:12:50.134Z,99.90
2019-03-10T06:13:54.385Z,99.90
2019-03-10T06:14:58.751Z,99.90
2019-03-10T06:16:02.972Z,99.90
2019-03-10T06:17:07.313Z,99.90
2019-03-10T06:18:14.009Z,99.90
2019-03-10T06:19:17.576Z,99.90
2019-03-10T06:20:21.886Z,99.90
2019-03-10T06:21:26.209Z,99.90
2019-03-10T06:22:30.550Z,99.90
2019-03-10T06:23:34.769Z,99.90
2019-03-10T06:24:39.040Z,99.90
2019-03-10T06:25:43.414Z,99.90
2019-03-10T06:26:48.136Z,99.90
2019-03-10T06:27:52.332Z,99.90
2019-03-10T06:28:57.182Z,99.90
2019-03-10T06:30:01.382Z,99.90
2019-03-10T06:31:05.709Z,99.90
2019-03-10T06:32:09.931Z,99.90
2019-03-10T06:33:14.493Z,99.90
2019-03-10T06:34:18.806Z,99.90
2019-03-10T06:35:22.984Z,99.90
2019-03-10T06:36:27.154Z,99.90
2019-03-10T06:37:31.535Z,99.90
2019-03-10T06:38:35.696Z,99.90
2019-03-10T06:39:39.970Z,99.90
2019-03-10T06:40:44.265Z,99.90
2019-03-10T06:41:48.495Z,99.90
2019-03-10T06:42:52.759Z,99.90
2019-03-10T06:43:56.883Z,99.90
2019-03-10T06:45:01.047Z,99.90
2019-03-10T06:46:05.214Z,99.90
2019-03-10T06:47:09.464Z,99.90
2019-03-10T06:48:13.631Z,99.90
2019-03-10T06:49:18.324Z,99.90
2019-03-10T06:50:22.676Z,99.90
2019-03-10T06:51:26.911Z,99.90
2019-03-10T06:52:31.143Z,99.90
2019-03-10T06:53:35.419Z,99.90
2019-03-10T06:54:39.701Z,99.90
2019-03-10T06:55:43.859Z,99.90
2019-03-10T06:56:48.023Z,99.90
2019-03-10T06:57:52.136Z,99.90
2019-03-10T06:58:59.674Z,99.90
2019-03-10T07:00:04.372Z,99.90
2019-03-10T07:01:08.634Z,99.90
2019-03-10T07:02:12.916Z,99.90
2019-03-10T07:03:17.183Z,99.90
2019-03-10T07:04:21.353Z,99.90
2019-03-10T07:05:25.661Z,99.90
2019-03-10T07:06:30.003Z,99.90
2019-03-10T07:07:34.197Z,99.90
2019-03-10T07:08:38.859Z,99.90
2019-03-10T07:09:43.063Z,99.90
2019-03-10T07:10:47.395Z,99.90
2019-03-10T07:11:51.740Z,99.90
2019-03-10T07:12:55.941Z,99.90
2019-03-10T07:14:00.212Z,99.90
2019-03-10T07:15:05.059Z,99.90
2019-03-10T07:16:09.303Z,99.90
2019-03-10T07:17:13.442Z,99.90
2019-03-10T07:18:17.707Z,99.90
2019-03-10T07:19:21.975Z,99.90
2019-03-10T07:20:26.285Z,99.90
2019-03-10T07:21:30.570Z,99.90
2019-03-10T07:22:34.827Z,99.90
2019-03-10T07:23:39.099Z,99.90
2019-03-10T07:24:43.271Z,99.90
2019-03-10T07:25:49.593Z,99.90
2019-03-10T07:26:53.909Z,99.90
2019-03-10T07:28:17.156Z,99.90
2019-03-10T07:29:27.378Z,99.90
2019-03-10T07:30:56.463Z,99.90
2019-03-10T07:32:19.683Z,99.90
2019-03-10T07:33:48.953Z,99.90
2019-03-10T07:35:11.163Z,99.90
2019-03-10T07:36:34.351Z,99.90
2019-03-10T07:37:49.224Z,99.90
2019-03-10T07:39:13.649Z,99.90
2019-03-10T07:40:34.878Z,99.90
2019-03-10T07:41:46.049Z,99.90
2019-03-10T07:43:09.303Z,99.90
2019-03-10T07:44:30.322Z,99.90
2019-03-10T07:45:43.747Z,99.90
2019-03-10T07:47:02.235Z,99.90
2019-03-10T07:48:19.586Z,99.90
2019-03-10T07:49:31.067Z,99.90
2019-03-10T07:50:47.974Z,99.90
2019-03-10T07:52:23.191Z,99.90
2019-03-10T07:53:45.301Z,99.90
2019-03-10T07:55:08.518Z,99.90
2019-03-10T07:56:37.599Z,99.90
2019-03-10T07:58:00.458Z,99.90
2019-03-10T07:59:29.994Z,99.90
2019-03-10T08:00:51.438Z,99.90
2019-03-10T08:02:13.459Z,99.90
2019-03-10T08:03:39.098Z,99.90
2019-03-10T08:05:02.247Z,99.90
2019-03-10T08:06:24.805Z,99.90
2019-03-10T08:07:46.176Z,99.90
2019-03-10T08:09:00.473Z,99.90
2019-03-10T08:10:11.341Z,99.90
2019-03-10T08:11:27.608Z,99.90
2019-03-10T08:12:53.598Z,99.90
2019-03-10T08:14:14.397Z,99.90
2019-03-10T08:15:32.311Z,99.90
2019-03-10T08:16:54.513Z,99.90
2019-03-10T08:18:12.827Z,99.90
2019-03-10T08:19:34.407Z,99.90
2019-03-10T08:21:02.535Z,99.90
2019-03-10T08:22:34.595Z,99.90
2019-03-10T08:23:57.821Z,99.90
2019-03-10T08:25:14.277Z,99.90
2019-03-10T08:26:36.124Z,99.90
2019-03-10T08:28:01.881Z,99.90
2019-03-10T08:29:14.588Z,99.90
2019-03-10T08:30:27.459Z,99.90
2019-03-10T08:31:52.561Z,99.90
2019-03-10T08:33:18.959Z,99.90
2019-03-10T08:34:40.883Z,99.90
2019-03-10T08:35:58.628Z,99.90
2019-03-10T08:37:14.528Z,99.90
2019-03-10T08:38:37.755Z,99.90
2019-03-10T08:40:06.983Z,99.90
2019-03-10T08:41:39.296Z,99.90
2019-03-10T08:43:06.052Z,99.90
2019-03-10T08:44:27.954Z,99.90
2019-03-10T08:45:44.179Z,99.90
2019-03-10T08:47:13.430Z,99.90
2019-03-10T08:48:45.806Z,99.90
2019-03-10T08:49:54.835Z,99.90
2019-03-10T08:51:33.203Z,99.90
2019-03-10T08:52:41.554Z,99.90
2019-03-10T08:53:51.533Z,99.90
2019-03-10T08:55:01.922Z,99.90
2019-03-10T08:56:16.280Z,99.90
2019-03-10T08:57:31.041Z,99.90
2019-03-10T08:58:57.389Z,99.90
2019-03-10T09:00:19.618Z,99.90
2019-03-10T09:01:45.831Z,99.90
2019-03-10T09:03:09.073Z,99.90
2019-03-10T09:04:50.865Z,99.90
2019-03-10T09:06:12.587Z,99.90
2019-03-10T09:07:35.802Z,99.90
2019-03-10T09:09:02.363Z,99.90
2019-03-10T09:10:32.503Z,99.90
2019-03-10T09:11:45.165Z,99.90
2019-03-10T09:13:01.024Z,99.90
2019-03-10T09:14:31.376Z,99.90
2019-03-10T09:15:43.447Z,99.90
2019-03-10T09:17:22.163Z,99.90
2019-03-10T09:18:57.345Z,99.90
2019-03-10T09:20:23.403Z,99.90
2019-03-10T09:21:49.481Z,99.90
2019-03-10T09:23:12.715Z,99.90
2019-03-10T09:24:27.472Z,99.90
2019-03-10T09:25:49.634Z,99.90
2019-03-10T09:27:21.979Z,99.90
2019-03-10T09:28:36.981Z,99.90
2019-03-10T09:30:00.455Z,99.90
2019-03-10T09:31:23.920Z,99.90
2019-03-10T09:32:48.463Z,99.90
2019-03-10T09:34:24.113Z,99.90
2019-03-10T09:35:42.369Z,99.90
2019-03-10T09:37:24.469Z,99.90
2019-03-10T09:38:50.339Z,99.90
2019-03-10T09:40:16.375Z,99.90
2019-03-10T09:41:42.197Z,99.90
2019-03-10T09:43:10.980Z,99.90
2019-03-10T09:44:29.538Z,99.90
2019-03-10T09:45:52.757Z,99.90
2019-03-10T09:47:14.526Z,99.90
2019-03-10T09:48:40.697Z,99.90
2019-03-10T09:49:55.317Z,99.90
2019-03-10T09:51:18.805Z,99.90
2019-03-10T09:52:44.812Z,99.90
2019-03-10T09:54:00.893Z,99.90
2019-03-10T09:55:13.604Z,99.90
2019-03-10T09:56:42.611Z,99.90
2019-03-10T09:58:20.943Z,99.90
2019-03-10T09:59:47.015Z,99.90
2019-03-10T10:01:06.893Z,99.90
2019-03-10T10:02:36.693Z,99.90
2019-03-10T10:04:08.577Z,99.90
2019-03-10T10:05:38.162Z,99.90
2019-03-10T10:07:01.402Z,99.90
2019-03-10T10:08:27.157Z,99.90
2019-03-10T10:09:50.413Z,99.90
2019-03-10T10:11:18.136Z,99.90
2019-03-10T10:12:39.864Z,99.90
2019-03-10T10:14:09.017Z,99.90
2019-03-10T10:15:41.601Z,99.90
2019-03-10T10:17:07.833Z,99.90
2019-03-10T10:18:49.269Z,99.90
2019-03-10T10:20:18.357Z,99.90
2019-03-10T10:21:41.584Z,99.90
2019-03-10T10:22:58.950Z,99.90
2019-03-10T10:24:28.011Z,99.90
2019-03-10T10:25:40.913Z,99.90
2019-03-10T10:27:12.924Z,99.90
2019-03-10T10:28:37.583Z,99.90
2019-03-10T10:30:09.773Z,99.90
2019-03-10T10:31:33.278Z,99.90
2019-03-10T10:33:02.475Z,99.90
2019-03-10T10:34:31.435Z,99.90
2019-03-10T10:36:00.768Z,99.90
2019-03-10T10:37:22.660Z,99.90
2019-03-10T10:38:44.493Z,99.90
2019-03-10T10:40:07.731Z,99.90
2019-03-10T10:41:33.591Z,99.90
2019-03-10T10:42:46.267Z,99.90
2019-03-10T10:44:07.857Z,99.90
2019-03-10T10:45:33.870Z,99.90
2019-03-10T10:47:09.319Z,99.90
2019-03-10T10:48:27.289Z,99.90
2019-03-10T10:50:08.733Z,99.90
2019-03-10T10:51:41.249Z,99.90
2019-03-10T10:53:22.952Z,99.90
2019-03-10T10:54:52.026Z,99.90
2019-03-10T10:56:27.202Z,99.90
2019-03-10T10:57:46.055Z,99.90
2019-03-10T10:58:58.989Z,99.90
2019-03-10T11:00:22.285Z,99.90
2019-03-10T11:01:53.556Z,99.90
2019-03-10T11:03:12.507Z,99.90
2019-03-10T11:04:29.439Z,99.90
2019-03-10T11:05:58.599Z,99.90
2019-03-10T11:07:08.150Z,99.90
2019-03-10T11:08:29.995Z,99.90
2019-03-10T11:09:40.337Z,99.90
2019-03-10T11:11:04.515Z,99.90
2019-03-10T11:12:25.265Z,99.90
2019-03-10T11:13:44.699Z,99.90
2019-03-10T11:14:58.372Z,99.90
2019-03-10T11:16:21.657Z,99.90
2019-03-10T11:17:47.689Z,99.90
2019-03-10T11:19:13.768Z,99.90
2019-03-10T11:20:40.056Z,99.90
2019-03-10T11:22:09.254Z,99.90
2019-03-10T11:23:26.671Z,99.90
2019-03-10T11:24:38.014Z,99.90
2019-03-10T11:26:10.826Z,99.90
2019-03-10T11:27:43.151Z,99.90
2019-03-10T11:28:54.867Z,99.90
2019-03-10T11:30:27.381Z,99.90
2019-03-10T11:31:43.267Z,99.90
2019-03-10T11:33:18.825Z,99.90
2019-03-10T11:34:43.642Z,99.90
2019-03-10T11:36:18.754Z,99.90
2019-03-10T11:37:42.036Z,99.90
2019-03-10T11:39:05.945Z,99.90
2019-03-10T11:40:29.613Z,99.90
2019-03-10T11:41:43.744Z,99.90
2019-03-10T11:43:05.740Z,99.90
2019-03-10T11:44:44.131Z,99.90
2019-03-10T11:45:59.825Z,99.90
2019-03-10T11:47:32.249Z,99.90
2019-03-10T11:48:49.785Z,99.90
2019-03-10T11:50:01.633Z,99.90
2019-03-10T11:51:27.925Z,99.90
2019-03-10T11:52:55.442Z,99.90
2019-03-10T11:54:23.351Z,99.90
2019-03-10T11:55:42.041Z,99.90
2019-03-10T11:56:58.441Z,99.90
2019-03-10T11:58:26.618Z,99.90
2019-03-10T11:59:35.524Z,99.90
2019-03-10T12:00:45.513Z,99.90
2019-03-10T12:02:17.646Z,99.90
2019-03-10T12:03:56.055Z,99.90
2019-03-10T12:05:22.269Z,99.90
2019-03-10T12:06:48.214Z,99.90
2019-03-10T12:08:10.095Z,99.90
2019-03-10T12:09:20.779Z,99.90
2019-03-10T12:10:25.005Z,99.90
2019-03-10T12:11:29.341Z,99.90
2019-03-10T12:12:33.665Z,99.90
2019-03-10T12:13:37.953Z,99.90
2019-03-10T12:14:42.256Z,99.90
2019-03-10T12:15:46.550Z,99.90
2019-03-10T12:16:50.801Z,99.90
2019-03-10T12:17:55.085Z,99.90
2019-03-10T12:18:59.350Z,99.90
2019-03-10T12:20:04.009Z,99.90
2019-03-10T12:21:08.332Z,99.90
2019-03-10T12:22:12.531Z,99.90
2019-03-10T12:23:16.725Z,99.90
2019-03-10T12:24:20.941Z,99.90
2019-03-10T12:25:25.241Z,99.90
2019-03-10T12:26:29.592Z,99.90
2019-03-10T12:27:33.901Z,99.90
2019-03-10T12:28:38.191Z,99.90
2019-03-10T12:29:42.756Z,99.90
2019-03-10T12:30:47.023Z,99.90
2019-03-10T12:31:51.214Z,99.90
2019-03-10T12:32:55.417Z,99.90
2019-03-10T12:33:59.761Z,99.90
2019-03-10T12:35:04.246Z,99.90
2019-03-10T12:36:08.513Z,99.90
2019-03-10T12:37:12.653Z,99.90
2019-03-10T12:38:16.971Z,99.90
2019-03-10T12:39:21.182Z,99.90
2019-03-10T12:40:25.401Z,99.90
2019-03-10T12:41:30.049Z,99.90
2019-03-10T12:42:34.195Z,99.90
2019-03-10T12:43:38.423Z,99.90
2019-03-10T12:44:42.582Z,99.90
2019-03-10T12:45:46.922Z,99.90
2019-03-10T12:46:51.203Z,99.90
2019-03-10T12:47:55.396Z,99.90
2019-03-10T12:48:59.696Z,99.90
2019-03-10T12:50:04.198Z,99.90
2019-03-10T12:51:08.501Z,99.90
2019-03-10T12:52:12.761Z,99.90
2019-03-10T12:53:16.936Z,99.90
2019-03-10T12:54:21.180Z,99.90
2019-03-10T12:55:25.400Z,99.90
2019-03-10T12:56:29.624Z,99.90
2019-03-10T12:57:33.919Z,99.90
2019-03-10T12:58:38.093Z,99.90
2019-03-10T12:59:42.415Z,99.90
2019-03-10T13:00:46.648Z,99.90
2019-03-10T13:01:50.985Z,99.90
2019-03-10T13:02:55.283Z,99.90
2019-03-10T13:03:59.517Z,99.90
2019-03-10T13:05:03.741Z,99.90
2019-03-10T13:06:08.271Z,99.90
2019-03-10T13:07:12.611Z,99.90
2019-03-10T13:08:16.821Z,99.90
2019-03-10T13:09:21.344Z,99.90
2019-03-10T13:10:25.695Z,99.90
2019-03-10T13:11:30.040Z,99.90
2019-03-10T13:12:34.307Z,99.90
2019-03-10T13:13:38.710Z,99.90
2019-03-10T13:14:42.929Z,99.90
2019-03-10T13:15:47.251Z,99.90
2019-03-10T13:16:51.589Z,99.90
2019-03-10T13:17:55.958Z,99.90
2019-03-10T13:19:00.334Z,99.90
2019-03-10T13:20:05.506Z,99.90
2019-03-10T13:21:09.867Z,99.90
2019-03-10T13:22:14.113Z,99.90
2019-03-10T13:23:18.309Z,99.90
2019-03-10T13:24:22.725Z,99.90
2019-03-10T13:25:26.933Z,99.90
2019-03-10T13:26:31.583Z,99.90
2019-03-10T13:27:35.936Z,99.90
2019-03-10T13:28:40.103Z,99.90
2019-03-10T13:29:44.614Z,99.90
2019-03-10T13:30:48.791Z,99.90
2019-03-10T13:31:53.137Z,99.90
2019-03-10T13:32:57.485Z,99.90
2019-03-10T13:34:01.660Z,99.90
2019-03-10T13:35:06.195Z,99.90
2019-03-10T13:36:10.425Z,99.90
2019-03-10T13:37:14.563Z,99.90
2019-03-10T13:38:18.877Z,99.90
2019-03-10T13:39:23.078Z,99.90
2019-03-10T13:40:27.256Z,99.90
2019-03-10T13:41:31.574Z,99.90
2019-03-10T13:42:35.739Z,99.90
2019-03-10T13:43:39.935Z,99.90
2019-03-10T13:44:44.127Z,99.90
2019-03-10T13:45:48.288Z,99.90
2019-03-10T13:46:52.789Z,99.90
2019-03-10T13:47:57.160Z,99.90
2019-03-10T13:49:01.422Z,99.90
2019-03-10T13:50:06.396Z,99.90
2019-03-10T13:51:10.615Z,99.90
2019-03-10T13:52:14.765Z,99.90
2019-03-10T13:53:19.009Z,99.90
2019-03-10T13:54:23.290Z,99.90
2019-03-10T13:55:27.548Z,99.90
2019-03-10T13:56:31.753Z,99.90
2019-03-10T13:57:35.974Z,99.90
2019-03-10T13:58:40.247Z,99.90
2019-03-10T13:59:44.433Z,99.90
2019-03-10T14:00:48.727Z,99.90
2019-03-10T14:01:53.033Z,99.90
2019-03-10T14:02:57.299Z,99.90
2019-03-10T14:04:01.534Z,99.90
2019-03-10T14:05:06.429Z,99.90
2019-03-10T14:06:10.863Z,99.90
2019-03-10T14:07:15.365Z,99.90
2019-03-10T14:08:19.637Z,99.90
2019-03-10T14:09:24.031Z,99.90
2019-03-10T14:10:28.335Z,99.90
2019-03-10T14:11:32.917Z,99.90
2019-03-10T14:12:37.095Z,99.90
2019-03-10T14:13:41.386Z,99.90
2019-03-10T14:14:45.588Z,99.90
2019-03-10T14:15:49.924Z,99.90
2019-03-10T14:16:54.209Z,99.90
2019-03-10T14:17:58.456Z,99.90
2019-03-10T14:19:02.776Z,99.90
2019-03-10T14:20:07.450Z,99.90
2019-03-10T14:21:11.708Z,99.90
2019-03-10T14:22:15.829Z,99.90
2019-03-10T14:23:20.189Z,99.90
2019-03-10T14:24:24.350Z,99.90
2019-03-10T14:25:28.512Z,99.90
2019-03-10T14:26:32.890Z,99.90
2019-03-10T14:27:37.169Z,99.90
2019-03-10T14:28:41.432Z,99.90
2019-03-10T14:29:45.659Z,99.90
2019-03-10T14:30:49.968Z,99.90
2019-03-10T14:31:54.261Z,99.90
2019-03-10T14:32:58.535Z,99.90
2019-03-10T14:34:02.710Z,99.90
2019-03-10T14:35:07.111Z,99.90
2019-03-10T14:36:11.351Z,99.90
2019-03-10T14:37:15.502Z,99.90
2019-03-10T14:38:19.705Z,99.90
2019-03-10T14:39:24.048Z,99.90
2019-03-10T14:40:28.377Z,99.90
2019-03-10T14:41:32.704Z,99.90
2019-03-10T14:42:36.867Z,99.90
2019-03-10T14:43:41.212Z,99.90
2019-03-10T14:44:45.447Z,99.90
2019-03-10T14:45:49.611Z,99.90
2019-03-10T14:46:53.799Z,99.90
2019-03-10T14:47:58.111Z,99.90
2019-03-10T14:49:02.432Z,99.90
2019-03-10T14:50:07.345Z,99.90
2019-03-10T14:51:16.160Z,99.90
2019-03-10T14:52:28.169Z,99.90
2019-03-10T14:53:32.508Z,99.90
2019-03-10T14:54:36.709Z,99.90
2019-03-10T14:55:41.009Z,99.90
2019-03-10T14:56:45.185Z,99.90
2019-03-10T14:57:49.374Z,99.90
2019-03-10T14:58:53.691Z,99.90
2019-03-10T14:59:57.855Z,99.90
2019-03-10T15:01:02.165Z,99.90
2019-03-10T15:02:06.413Z,99.90